createdAt,value
2023-05-01T00:02:11.474Z,9.70
2023-05-01T00:07:12.931Z,9.60
2023-05-01T00:12:14.186Z,10.50
2023-05-01T00:14:45.592Z,10.00
2023-05-01T00:17:17.228Z,10.20
2023-05-01T00:19:48.635Z,8.20
2023-05-01T00:22:20.140Z,6.60
2023-05-01T00:24:52.002Z,7.20
2023-05-01T00:27:23.452Z,6.10
2023-05-01T00:29:55.892Z,5.60
2023-05-01T00:32:27.718Z,5.40
2023-05-01T00:34:59.070Z,6.20
2023-05-01T00:37:30.494Z,6.10
2023-05-01T00:40:02.124Z,6.70
2023-05-01T00:42:37.463Z,7.40
2023-05-01T00:45:11.178Z,6.30
2023-05-01T00:47:42.664Z,5.80
2023-05-01T00:50:14.571Z,6.50
2023-05-01T00:55:15.830Z,5.10
2023-05-01T00:57:47.822Z,5.10
2023-05-01T01:00:22.567Z,6.20
2023-05-01T01:02:54.172Z,4.90
2023-05-01T01:05:26.013Z,5.10
2023-05-01T01:10:36.033Z,5.50
2023-05-01T01:13:10.460Z,6.40
2023-05-01T01:15:45.285Z,5.00
2023-05-01T01:18:21.083Z,5.20
2023-05-01T01:20:56.964Z,5.00
2023-05-01T01:23:44.776Z,5.00
2023-05-01T01:26:18.596Z,7.50
2023-05-01T01:29:11.850Z,8.10
2023-05-01T01:31:51.017Z,9.60
2023-05-01T01:34:25.312Z,11.40
2023-05-01T01:37:00.507Z,13.40
2023-05-01T01:39:38.299Z,13.40
2023-05-01T01:42:12.943Z,13.60
2023-05-01T01:44:48.532Z,15.30
2023-05-01T01:47:20.860Z,16.10
2023-05-01T01:49:55.068Z,14.90
2023-05-01T01:52:27.074Z,13.60
2023-05-01T01:54:59.911Z,13.90
2023-05-01T01:57:31.535Z,14.00
2023-05-01T02:00:03.138Z,12.70
2023-05-01T02:02:45.407Z,11.20
2023-05-01T02:05:18.071Z,11.80
2023-05-01T02:07:51.077Z,11.40
2023-05-01T02:10:22.965Z,11.70
2023-05-01T02:12:54.938Z,11.40
2023-05-01T02:15:27.188Z,11.20
2023-05-01T02:20:29.246Z,12.40
2023-05-01T02:23:00.717Z,12.70
2023-05-01T02:25:32.438Z,15.00
2023-05-01T02:30:35.150Z,13.50
2023-05-01T02:33:06.846Z,13.20
2023-05-01T02:38:15.363Z,12.90
2023-05-01T02:40:48.599Z,14.30
2023-05-01T02:43:21.666Z,14.00
2023-05-01T02:45:54.198Z,12.30
2023-05-01T02:48:27.283Z,10.50
2023-05-01T02:50:58.886Z,12.60
2023-05-01T02:53:30.531Z,11.60
2023-05-01T02:56:09.168Z,11.20
2023-05-01T02:58:41.199Z,9.60
2023-05-01T03:01:12.739Z,10.40
2023-05-01T03:03:44.193Z,9.40
2023-05-01T03:06:15.762Z,9.60
2023-05-01T03:11:16.989Z,9.60
2023-05-01T03:13:49.081Z,9.10
2023-05-01T03:16:20.793Z,9.30
2023-05-01T03:18:52.363Z,8.80
2023-05-01T03:21:23.960Z,8.20
2023-05-01T03:26:25.492Z,7.10
2023-05-01T03:31:27.219Z,6.20
2023-05-01T03:33:59.564Z,8.00
2023-05-01T03:36:34.013Z,7.70
2023-05-01T03:39:06.934Z,8.90
2023-05-01T03:44:43.422Z,7.30
2023-05-01T03:47:15.259Z,8.00
2023-05-01T03:49:47.786Z,10.30
2023-05-01T03:52:19.340Z,7.70
2023-05-01T03:54:51.373Z,7.80
2023-05-01T03:57:29.121Z,7.40
2023-05-01T04:00:01.591Z,8.60
2023-05-01T04:02:36.446Z,8.50
2023-05-01T04:05:09.691Z,8.00
2023-05-01T04:07:41.425Z,8.70
2023-05-01T04:10:13.506Z,8.00
2023-05-01T04:12:49.984Z,9.00
2023-05-01T04:15:23.043Z,9.80
2023-05-01T04:17:57.122Z,9.30
2023-05-01T04:20:28.925Z,10.70
2023-05-01T04:25:31.410Z,10.80
2023-05-01T04:28:08.998Z,10.90
2023-05-01T04:30:40.393Z,12.70
2023-05-01T04:35:43.942Z,13.40
2023-05-01T04:38:15.397Z,13.70
2023-05-01T04:40:46.849Z,13.70
2023-05-01T04:43:18.447Z,13.70
2023-05-01T04:45:49.994Z,12.00
2023-05-01T04:48:22.087Z,12.20
2023-05-01T04:50:56.424Z,10.80
2023-05-01T04:53:32.279Z,7.50
2023-05-01T04:56:04.350Z,6.60
2023-05-01T04:58:37.347Z,6.00
2023-05-01T05:01:14.129Z,5.90
2023-05-01T05:03:49.618Z,5.60
2023-05-01T05:06:22.984Z,5.50
2023-05-01T05:08:55.933Z,5.00
2023-05-01T05:11:28.021Z,5.30
2023-05-01T05:14:09.062Z,4.60
2023-05-01T05:16:40.772Z,4.50
2023-05-01T05:21:45.636Z,4.00
2023-05-01T05:24:17.328Z,4.30
2023-05-01T05:29:18.695Z,4.20
2023-05-01T05:31:50.297Z,4.10
2023-05-01T05:36:51.831Z,4.10
2023-05-01T05:39:25.721Z,4.50
2023-05-01T05:41:57.730Z,5.10
2023-05-01T05:46:59.591Z,5.00
2023-05-01T05:49:34.002Z,3.80
2023-05-01T05:52:05.644Z,4.20
2023-05-01T05:54:37.761Z,4.70
2023-05-01T05:57:09.266Z,4.80
2023-05-01T05:59:44.424Z,4.30
2023-05-01T06:02:16.966Z,4.50
2023-05-01T06:04:49.189Z,4.00
2023-05-01T06:07:23.302Z,4.80
2023-05-01T06:09:55.771Z,5.30
2023-05-01T06:12:30.017Z,4.60
2023-05-01T06:15:03.229Z,4.20
2023-05-01T06:17:36.433Z,3.50
2023-05-01T06:20:09.854Z,3.70
2023-05-01T06:22:41.666Z,4.30
2023-05-01T06:25:19.529Z,4.20
2023-05-01T06:27:50.912Z,4.80
2023-05-01T06:32:54.884Z,4.00
2023-05-01T06:35:26.758Z,3.70
2023-05-01T06:37:58.602Z,4.20
2023-05-01T06:40:31.891Z,6.00
2023-05-01T06:43:03.503Z,5.10
2023-05-01T06:45:35.163Z,4.30
2023-05-01T06:50:40.650Z,5.30
2023-05-01T06:55:42.532Z,4.50
2023-05-01T06:58:23.604Z,4.10
2023-05-01T07:00:56.674Z,4.30
2023-05-01T07:03:28.692Z,4.50
2023-05-01T07:06:00.605Z,5.10
2023-05-01T07:08:32.337Z,3.90
2023-05-01T07:13:33.623Z,3.90
2023-05-01T07:16:05.515Z,4.00
2023-05-01T07:18:38.155Z,4.40
2023-05-01T07:21:12.219Z,3.10
2023-05-01T07:23:44.143Z,3.90
2023-05-01T07:26:15.509Z,3.70
2023-05-01T07:28:46.881Z,3.80
2023-05-01T07:31:18.499Z,4.10
2023-05-01T07:33:51.107Z,4.30
2023-05-01T07:36:22.914Z,4.50
2023-05-01T07:38:55.102Z,4.80
2023-05-01T07:41:26.954Z,4.60
2023-05-01T07:43:59.729Z,3.60
2023-05-01T07:46:31.548Z,3.10
2023-05-01T07:49:04.554Z,3.50
2023-05-01T07:51:36.197Z,3.60
2023-05-01T07:54:07.836Z,3.90
2023-05-01T07:56:39.578Z,3.30
2023-05-01T07:59:11.471Z,4.30
2023-05-01T08:01:42.961Z,4.50
2023-05-01T08:04:15.545Z,4.90
2023-05-01T08:06:47.391Z,3.80
2023-05-01T08:09:18.852Z,4.40
2023-05-01T08:11:50.649Z,4.00
2023-05-01T08:16:55.595Z,3.90
2023-05-01T08:19:28.195Z,3.60
2023-05-01T08:21:59.733Z,4.00
2023-05-01T08:24:31.481Z,4.30
2023-05-01T08:29:33.283Z,5.10
2023-05-01T08:34:35.044Z,5.20
2023-05-01T08:37:06.548Z,4.80
2023-05-01T08:39:38.173Z,4.30
2023-05-01T08:44:41.039Z,3.60
2023-05-01T08:47:14.911Z,3.60
2023-05-01T08:49:46.982Z,4.30
2023-05-01T08:52:18.835Z,4.30
2023-05-01T08:54:50.329Z,5.20
2023-05-01T08:57:21.956Z,4.60
2023-05-01T08:59:53.870Z,4.20
2023-05-01T09:02:25.851Z,4.50
2023-05-01T09:04:57.822Z,3.10
2023-05-01T09:07:29.694Z,3.70
2023-05-01T09:10:01.138Z,3.90
2023-05-01T09:12:35.655Z,3.50
2023-05-01T09:15:09.586Z,3.50
2023-05-01T09:17:41.126Z,2.70
2023-05-01T09:20:14.496Z,3.00
2023-05-01T09:22:49.883Z,3.10
2023-05-01T09:25:21.596Z,2.80
2023-05-01T09:30:34.828Z,3.60
2023-05-01T09:33:13.754Z,4.40
2023-05-01T09:35:55.869Z,4.00
2023-05-01T09:40:58.710Z,3.50
2023-05-01T09:43:30.958Z,3.40
2023-05-01T09:46:09.627Z,3.80
2023-05-01T09:48:41.355Z,4.30
2023-05-01T09:51:27.227Z,3.50
2023-05-01T09:54:00.932Z,3.20
2023-05-01T09:56:33.360Z,2.70
2023-05-01T09:59:18.361Z,3.40
2023-05-01T10:01:51.459Z,2.80
2023-05-01T10:04:32.645Z,3.30
2023-05-01T10:07:14.576Z,3.80
2023-05-01T10:09:46.068Z,3.30
2023-05-01T10:12:25.736Z,3.40
2023-05-01T10:14:58.521Z,2.70
2023-05-01T10:17:31.328Z,2.90
2023-05-01T10:20:02.943Z,3.10
2023-05-01T10:25:04.857Z,3.40
2023-05-01T10:27:36.469Z,4.00
2023-05-01T10:32:39.797Z,4.10
2023-05-01T10:35:12.920Z,3.70
2023-05-01T10:37:47.970Z,3.30
2023-05-01T10:40:49.867Z,3.00
2023-05-01T10:43:26.321Z,2.40
2023-05-01T10:46:19.600Z,3.10
2023-05-01T10:49:00.343Z,2.50
2023-05-01T10:51:32.651Z,2.70
2023-05-01T10:54:28.146Z,3.00
2023-05-01T10:57:01.809Z,2.80
2023-05-01T10:59:46.844Z,2.40
2023-05-01T11:02:26.742Z,2.90
2023-05-01T11:04:59.293Z,3.00
2023-05-01T11:07:31.961Z,2.90
2023-05-01T11:10:03.354Z,3.00
2023-05-01T11:12:52.954Z,2.50
2023-05-01T11:15:34.645Z,2.80
2023-05-01T11:18:08.803Z,3.70
2023-05-01T11:21:04.168Z,3.40
2023-05-01T11:23:35.627Z,2.80
2023-05-01T11:26:07.391Z,2.90
2023-05-01T11:28:39.083Z,3.40
2023-05-01T11:33:41.436Z,3.30
2023-05-01T11:36:14.309Z,3.40
2023-05-01T11:38:56.719Z,4.00
2023-05-01T11:41:28.476Z,3.90
2023-05-01T11:46:31.835Z,3.50
2023-05-01T11:49:04.034Z,3.90
2023-05-01T11:51:35.758Z,3.00
2023-05-01T11:56:38.475Z,3.70
2023-05-01T11:59:20.467Z,3.50
2023-05-01T12:01:52.820Z,3.30
2023-05-01T12:04:32.267Z,3.30
2023-05-01T12:07:04.101Z,4.20
2023-05-01T12:09:35.595Z,3.70
2023-05-01T12:12:07.453Z,4.00
2023-05-01T12:14:38.975Z,4.80
2023-05-01T12:19:50.618Z,4.30
2023-05-01T12:22:22.482Z,4.10
2023-05-01T12:24:54.976Z,4.50
2023-05-01T12:27:26.653Z,3.90
2023-05-01T12:29:58.286Z,4.90
2023-05-01T12:35:04.447Z,4.00
2023-05-01T12:37:36.605Z,4.90
2023-05-01T12:40:11.028Z,3.70
2023-05-01T12:42:42.820Z,4.10
2023-05-01T12:45:15.955Z,4.10
2023-05-01T12:47:47.740Z,4.30
2023-05-01T12:52:49.481Z,4.30
2023-05-01T12:55:21.069Z,3.80
2023-05-01T12:57:58.522Z,3.90
2023-05-01T13:00:30.266Z,4.30
2023-05-01T13:05:36.442Z,3.60
2023-05-01T13:08:08.143Z,4.30
2023-05-01T13:13:09.498Z,4.30
2023-05-01T13:18:10.984Z,4.00
2023-05-01T13:20:42.962Z,4.70
2023-05-01T13:23:15.187Z,3.80
2023-05-01T13:25:47.963Z,4.10
2023-05-01T13:28:22.281Z,3.70
2023-05-01T13:30:53.670Z,4.00
2023-05-01T13:33:25.060Z,3.60
2023-05-01T13:35:56.916Z,4.10
2023-05-01T13:38:28.306Z,3.90
2023-05-01T13:41:00.060Z,4.40
2023-05-01T13:46:02.543Z,4.50
2023-05-01T13:48:34.532Z,3.60
2023-05-01T13:51:06.367Z,3.40
2023-05-01T13:53:37.857Z,4.30
2023-05-01T13:56:10.123Z,4.80
2023-05-01T13:58:41.822Z,4.40
2023-05-01T14:01:19.200Z,4.70
2023-05-01T14:03:51.690Z,4.80
2023-05-01T14:06:24.923Z,4.70
2023-05-01T14:08:57.304Z,4.40
2023-05-01T14:11:30.043Z,5.70
2023-05-01T14:14:02.339Z,4.90
2023-05-01T14:16:33.917Z,5.80
2023-05-01T14:19:06.321Z,5.00
2023-05-01T14:21:44.237Z,5.60
2023-05-01T14:24:16.522Z,5.60
2023-05-01T14:26:49.727Z,5.10
2023-05-01T14:29:27.316Z,4.80
2023-05-01T14:31:59.595Z,5.30
2023-05-01T14:34:31.181Z,3.80
2023-05-01T14:37:02.801Z,4.20
2023-05-01T14:39:36.201Z,4.70
2023-05-01T14:42:08.180Z,4.30
2023-05-01T14:44:40.566Z,4.20
2023-05-01T14:47:12.699Z,3.60
2023-05-01T14:49:44.338Z,3.80
2023-05-01T14:54:48.916Z,4.70
2023-05-01T14:57:20.761Z,4.30
2023-05-01T14:59:52.279Z,4.50
2023-05-01T15:02:23.930Z,5.30
2023-05-01T15:07:26.342Z,4.30
2023-05-01T15:09:57.724Z,4.50
2023-05-01T15:12:29.830Z,4.60
2023-05-01T15:15:01.923Z,3.90
2023-05-01T15:17:33.737Z,3.90
2023-05-01T15:22:35.592Z,3.90
2023-05-01T15:25:08.827Z,3.80
2023-05-01T15:27:40.707Z,3.60
2023-05-01T15:30:13.785Z,3.60
2023-05-01T15:32:45.906Z,4.90
2023-05-01T15:35:17.956Z,4.30
2023-05-01T15:40:19.778Z,3.60
2023-05-01T15:42:51.934Z,3.50
2023-05-01T15:45:23.701Z,4.00
2023-05-01T15:50:25.591Z,3.70
2023-05-01T15:52:58.780Z,4.10
2023-05-01T15:58:00.289Z,4.20
2023-05-01T16:03:02.490Z,3.60
2023-05-01T16:05:35.045Z,3.80
2023-05-01T16:08:06.851Z,4.30
2023-05-01T16:10:39.041Z,3.90
2023-05-01T16:13:10.549Z,3.90
2023-05-01T16:15:42.214Z,4.20
2023-05-01T16:20:45.068Z,4.40
2023-05-01T16:23:17.081Z,4.50
2023-05-01T16:25:48.855Z,4.00
2023-05-01T16:28:20.148Z,4.40
2023-05-01T16:30:52.378Z,5.10
2023-05-01T16:33:24.790Z,4.30
2023-05-01T16:35:57.684Z,4.50
2023-05-01T16:38:29.366Z,4.40
2023-05-01T16:41:00.822Z,4.10
2023-05-01T16:43:32.378Z,5.00
2023-05-01T16:46:04.193Z,4.60
2023-05-01T16:48:36.064Z,5.10
2023-05-01T16:51:09.692Z,5.60
2023-05-01T16:53:42.232Z,6.40
2023-05-01T16:56:13.814Z,5.70
2023-05-01T16:58:45.476Z,6.30
2023-05-01T17:01:17.453Z,6.10
2023-05-01T17:03:49.366Z,6.30
2023-05-01T17:08:50.678Z,5.90
2023-05-01T17:11:24.526Z,5.40
2023-05-01T17:13:56.393Z,5.30
2023-05-01T17:16:28.567Z,5.60
2023-05-01T17:19:01.663Z,6.10
2023-05-01T17:21:33.369Z,5.70
2023-05-01T17:26:36.398Z,5.30
2023-05-01T17:31:37.715Z,6.00
2023-05-01T17:34:09.155Z,5.60
2023-05-01T17:36:40.767Z,5.70
2023-05-01T17:39:12.611Z,7.60
2023-05-01T17:44:27.176Z,6.80
2023-05-01T17:47:00.845Z,7.20
2023-05-01T17:49:32.258Z,6.50
2023-05-01T17:52:04.268Z,7.10
2023-05-01T17:54:38.553Z,8.40
2023-05-01T17:57:11.270Z,8.60
2023-05-01T17:59:42.989Z,6.70
2023-05-01T18:04:44.491Z,6.20
2023-05-01T18:09:46.165Z,5.60
2023-05-01T18:12:17.670Z,6.60
2023-05-01T18:14:49.135Z,6.90
2023-05-01T18:17:22.977Z,6.80
2023-05-01T18:19:55.270Z,6.30
2023-05-01T18:22:27.962Z,6.60
2023-05-01T18:24:59.822Z,7.60
2023-05-01T18:27:31.306Z,7.20
2023-05-01T18:30:03.585Z,8.50
2023-05-01T18:32:46.719Z,8.80
2023-05-01T18:35:20.057Z,9.40
2023-05-01T18:37:52.313Z,9.20
2023-05-01T18:40:23.784Z,10.30
2023-05-01T18:42:56.356Z,11.50
2023-05-01T18:45:28.003Z,10.20
2023-05-01T18:48:00.664Z,11.20
2023-05-01T18:50:32.671Z,9.70
2023-05-01T18:55:34.284Z,9.70
2023-05-01T18:58:06.143Z,15.60
2023-05-01T19:00:38.016Z,14.60
2023-05-01T19:05:41.948Z,11.00
2023-05-01T19:08:13.471Z,12.50
2023-05-01T19:10:45.279Z,11.30
2023-05-01T19:13:17.021Z,11.90
2023-05-01T19:15:49.071Z,12.50
2023-05-01T19:20:50.690Z,12.50
2023-05-01T19:23:22.178Z,11.30
2023-05-01T19:25:54.237Z,12.10
2023-05-01T19:28:25.806Z,11.40
2023-05-01T19:30:57.501Z,11.60
2023-05-01T19:33:29.148Z,12.30
2023-05-01T19:36:00.704Z,11.40
2023-05-01T19:38:33.793Z,12.10
2023-05-01T19:41:05.298Z,12.20
2023-05-01T19:43:36.980Z,11.10
2023-05-01T19:48:39.149Z,10.90
2023-05-01T19:53:40.851Z,12.30
2023-05-01T19:56:12.975Z,12.50
2023-05-01T19:58:44.781Z,10.60
2023-05-01T20:01:16.442Z,42.80
2023-05-01T20:08:49.640Z,22.20
2023-05-01T20:11:21.649Z,21.50
2023-05-01T20:13:53.109Z,15.10
2023-05-01T20:16:24.910Z,10.70
2023-05-01T20:18:56.566Z,11.70
2023-05-01T20:21:28.165Z,11.20
2023-05-01T20:24:00.209Z,10.00
2023-05-01T20:26:31.572Z,9.90
2023-05-01T20:29:03.055Z,10.30
2023-05-01T20:31:34.999Z,9.30
2023-05-01T20:34:06.396Z,9.10
2023-05-01T20:36:37.898Z,8.60
2023-05-01T20:39:09.385Z,8.00
2023-05-01T20:41:40.770Z,8.90
2023-05-01T20:44:12.138Z,8.30
2023-05-01T20:46:46.946Z,8.00
2023-05-01T20:49:20.607Z,8.60
2023-05-01T20:51:52.010Z,8.70
2023-05-01T20:54:23.662Z,8.30
2023-05-01T20:59:24.966Z,8.70
2023-05-01T21:01:56.429Z,8.30
2023-05-01T21:04:27.941Z,8.70
2023-05-01T21:07:00.248Z,9.80
2023-05-01T21:09:31.692Z,8.80
2023-05-01T21:12:03.347Z,8.60
2023-05-01T21:14:34.869Z,7.60
2023-05-01T21:17:06.395Z,8.20
2023-05-01T21:19:41.391Z,6.80
2023-05-01T21:22:17.542Z,7.40
2023-05-01T21:24:50.653Z,8.00
2023-05-01T21:27:22.564Z,7.40
2023-05-01T21:29:56.884Z,7.90
2023-05-01T21:32:30.750Z,7.50
2023-05-01T21:35:02.174Z,6.80
2023-05-01T21:37:33.735Z,7.10
2023-05-01T21:40:06.160Z,7.60
2023-05-01T21:42:39.706Z,8.20
2023-05-01T21:45:13.309Z,9.00
2023-05-01T21:47:45.384Z,7.90
2023-05-01T21:50:18.176Z,8.60
2023-05-01T21:52:50.439Z,9.30
2023-05-01T21:55:23.067Z,9.00
2023-05-01T21:57:54.566Z,8.90
2023-05-01T22:00:27.491Z,8.60
2023-05-01T22:02:59.154Z,9.10
2023-05-01T22:08:03.091Z,8.70
2023-05-01T22:10:34.412Z,8.80
2023-05-01T22:13:06.641Z,8.60
2023-05-01T22:15:38.107Z,9.00
2023-05-01T22:18:09.656Z,8.40
2023-05-01T22:20:41.141Z,8.40
2023-05-01T22:23:12.572Z,8.10
2023-05-01T22:25:44.013Z,7.80
2023-05-01T22:28:17.535Z,7.80
2023-05-01T22:30:49.509Z,7.00
2023-05-01T22:33:20.885Z,7.60
2023-05-01T22:35:52.202Z,7.80
2023-05-01T22:38:23.685Z,7.90
2023-05-01T22:40:55.179Z,8.00
2023-05-01T22:43:26.924Z,8.60
2023-05-01T22:48:28.037Z,8.40
2023-05-01T22:50:59.492Z,8.80
2023-05-01T22:53:31.482Z,8.30
2023-05-01T22:56:02.849Z,7.60
2023-05-01T22:58:34.305Z,8.80
2023-05-01T23:01:05.635Z,8.10
2023-05-01T23:03:38.918Z,7.30
2023-05-01T23:06:10.780Z,8.20
2023-05-01T23:08:42.222Z,9.80
2023-05-01T23:11:14.868Z,10.40
2023-05-01T23:13:48.123Z,8.70
2023-05-01T23:16:19.658Z,9.00
2023-05-01T23:18:51.189Z,7.90
2023-05-01T23:21:22.657Z,8.10
2023-05-01T23:23:54.055Z,8.70
2023-05-01T23:26:29.017Z,9.40
2023-05-01T23:29:01.336Z,8.50
2023-05-01T23:31:32.727Z,8.60
2023-05-01T23:34:05.416Z,7.50
2023-05-01T23:36:36.815Z,8.60
2023-05-01T23:39:08.212Z,9.60
2023-05-01T23:41:39.505Z,7.70
2023-05-01T23:44:10.985Z,7.90
2023-05-01T23:46:42.496Z,8.60
2023-05-01T23:51:44.485Z,8.40
2023-05-01T23:54:15.964Z,8.30
2023-05-01T23:56:47.746Z,8.40
